createdAt,value
2022-11-07T00:01:14.157Z,100750.03
2022-11-07T00:03:40.472Z,100736.09
2022-11-07T00:06:07.264Z,100734.44
2022-11-07T00:08:33.503Z,100768.34
2022-11-07T00:11:01.752Z,100792.91
2022-11-07T00:13:28.563Z,100788.53
2022-11-07T00:16:02.872Z,100761.84
2022-11-07T00:18:29.842Z,100754.84
2022-11-07T00:21:00.682Z,100740.38
2022-11-07T00:23:27.816Z,100750.13
2022-11-07T00:25:54.585Z,100761.41
2022-11-07T00:28:20.896Z,100752.38
2022-11-07T00:30:47.471Z,100741.72
2022-11-07T00:33:13.741Z,100742.47
2022-11-07T00:35:41.727Z,100750.16
2022-11-07T00:38:07.884Z,100741.09
2022-11-07T00:40:34.301Z,100744.97
2022-11-07T00:43:00.401Z,100737.66
2022-11-07T00:45:26.852Z,100742.31
2022-11-07T00:47:53.966Z,100740.59
2022-11-07T00:50:20.345Z,100744.88
2022-11-07T00:52:46.440Z,100747.34
2022-11-07T00:55:12.786Z,100744.56
2022-11-07T00:57:38.905Z,100745.16
2022-11-07T01:00:06.486Z,100757.03
2022-11-07T01:02:32.630Z,100755.81
2022-11-07T01:05:11.159Z,100760.34
2022-11-07T01:07:40.407Z,100736.75
2022-11-07T01:10:07.416Z,100729.16
2022-11-07T01:12:34.988Z,100738.44
2022-11-07T01:15:03.374Z,100747.22
2022-11-07T01:17:29.490Z,100743.56
2022-11-07T01:19:55.827Z,100747.25
2022-11-07T01:22:21.913Z,100739.06
2022-11-07T01:24:48.306Z,100743.22
2022-11-07T01:27:14.374Z,100742.84
2022-11-07T01:29:40.751Z,100732.06
2022-11-07T01:32:06.897Z,100732.81
2022-11-07T01:34:33.383Z,100723.75
2022-11-07T01:36:59.535Z,100717.03
2022-11-07T01:39:26.080Z,100713.81
2022-11-07T01:41:52.252Z,100713.47
2022-11-07T01:44:18.568Z,100697.63
2022-11-07T01:46:47.050Z,100696.06
2022-11-07T01:49:20.251Z,100694.84
2022-11-07T01:52:07.884Z,100683.38
2022-11-07T01:54:40.989Z,100676.81
2022-11-07T01:57:13.388Z,100682.63
2022-11-07T01:59:40.168Z,100668.97
2022-11-07T02:02:08.666Z,100674.59
2022-11-07T02:04:36.589Z,100669.34
2022-11-07T02:07:02.880Z,100685.22
2022-11-07T02:09:29.546Z,100681.44
2022-11-07T02:12:00.159Z,100689.28
2022-11-07T02:14:28.536Z,100679.72
2022-11-07T02:16:55.138Z,100673.50
2022-11-07T02:19:32.691Z,100662.84
2022-11-07T02:22:10.679Z,100667.34
2022-11-07T02:24:38.262Z,100669.91
2022-11-07T02:27:12.349Z,100672.25
2022-11-07T02:29:41.784Z,100665.88
2022-11-07T02:32:10.705Z,100662.59
2022-11-07T02:34:37.747Z,100664.34
2022-11-07T02:37:11.373Z,100655.09
2022-11-07T02:39:38.061Z,100659.09
2022-11-07T02:42:05.744Z,100664.47
2022-11-07T02:44:33.434Z,100645.25
2022-11-07T02:46:59.527Z,100662.06
2022-11-07T02:49:25.919Z,100660.53
2022-11-07T02:51:52.026Z,100656.47
2022-11-07T02:54:18.415Z,100651.38
2022-11-07T02:56:48.180Z,100657.53
2022-11-07T02:59:14.603Z,100660.88
2022-11-07T03:01:40.920Z,100660.03
2022-11-07T03:04:07.507Z,100661.53
2022-11-07T03:06:33.606Z,100664.72
2022-11-07T03:09:00.001Z,100655.22
2022-11-07T03:11:26.106Z,100663.66
2022-11-07T03:13:54.303Z,100664.44
2022-11-07T03:16:20.378Z,100675.84
2022-11-07T03:18:47.222Z,100672.94
2022-11-07T03:21:13.584Z,100674.28
2022-11-07T03:23:41.887Z,100674.31
2022-11-07T03:26:08.092Z,100670.28
2022-11-07T03:28:34.859Z,100673.22
2022-11-07T03:31:03.310Z,100669.16
2022-11-07T03:33:30.438Z,100662.50
2022-11-07T03:35:56.765Z,100660.06
2022-11-07T03:38:23.298Z,100657.06
2022-11-07T03:40:49.351Z,100650.38
2022-11-07T03:43:16.405Z,100651.13
2022-11-07T03:45:42.706Z,100652.97
2022-11-07T03:48:09.102Z,100646.59
2022-11-07T03:50:35.462Z,100646.81
2022-11-07T03:53:01.827Z,100651.78
2022-11-07T03:55:27.942Z,100663.28
2022-11-07T03:57:54.400Z,100664.53
2022-11-07T04:00:20.569Z,100669.53
2022-11-07T04:02:47.222Z,100666.75
2022-11-07T04:05:13.418Z,100661.72
2022-11-07T04:07:39.816Z,100656.59
2022-11-07T04:10:06.363Z,100656.38
2022-11-07T04:12:52.405Z,100648.91
2022-11-07T04:15:38.033Z,100653.53
2022-11-07T04:18:04.534Z,100652.03
2022-11-07T04:20:31.037Z,100644.03
2022-11-07T04:22:57.643Z,100654.19
2022-11-07T04:25:44.633Z,100638.75
2022-11-07T04:28:11.137Z,100648.13
2022-11-07T04:30:37.388Z,100640.53
2022-11-07T04:33:04.086Z,100628.50
2022-11-07T04:35:32.538Z,100637.72
2022-11-07T04:38:00.382Z,100634.13
2022-11-07T04:40:27.928Z,100634.53
2022-11-07T04:42:54.893Z,100643.69
2022-11-07T04:45:21.267Z,100640.44
2022-11-07T04:47:48.111Z,100648.56
2022-11-07T04:50:17.190Z,100647.38
2022-11-07T04:52:45.099Z,100643.19
2022-11-07T04:55:18.752Z,100644.69
2022-11-07T04:57:45.246Z,100641.25
2022-11-07T05:00:12.111Z,100643.94
2022-11-07T05:02:38.625Z,100641.59
2022-11-07T05:05:05.452Z,100645.84
2022-11-07T05:07:31.920Z,100634.22
2022-11-07T05:09:58.055Z,100643.59
2022-11-07T05:12:24.507Z,100638.63
2022-11-07T05:14:50.672Z,100642.06
2022-11-07T05:17:17.433Z,100641.19
2022-11-07T05:19:43.590Z,100636.25
2022-11-07T05:22:29.331Z,100633.75
2022-11-07T05:24:55.472Z,100626.50
2022-11-07T05:27:22.493Z,100630.09
2022-11-07T05:29:48.619Z,100633.31
2022-11-07T05:32:16.689Z,100629.78
2022-11-07T05:34:43.533Z,100629.31
2022-11-07T05:37:11.265Z,100646.34
2022-11-07T05:39:37.888Z,100637.00
2022-11-07T05:42:04.564Z,100643.66
2022-11-07T05:44:30.975Z,100652.59
2022-11-07T05:46:57.800Z,100656.16
2022-11-07T05:49:24.876Z,100656.28
2022-11-07T05:51:52.194Z,100655.75
2022-11-07T05:54:18.572Z,100670.66
2022-11-07T05:56:45.120Z,100664.88
2022-11-07T05:59:12.079Z,100664.69
2022-11-07T06:01:38.868Z,100664.59
2022-11-07T06:04:08.822Z,100674.81
2022-11-07T06:06:35.333Z,100671.97
2022-11-07T06:09:01.455Z,100671.13
2022-11-07T06:11:28.103Z,100673.56
2022-11-07T06:13:54.370Z,100675.00
2022-11-07T06:16:21.353Z,100661.16
2022-11-07T06:18:47.868Z,100674.63
2022-11-07T06:21:15.614Z,100673.91
2022-11-07T06:23:42.331Z,100678.13
2022-11-07T06:26:09.287Z,100684.84
2022-11-07T06:28:35.528Z,100682.53
2022-11-07T06:31:04.517Z,100684.56
2022-11-07T06:33:32.250Z,100694.50
2022-11-07T06:36:11.193Z,100690.81
2022-11-07T06:38:40.601Z,100697.50
2022-11-07T06:41:09.841Z,100708.03
2022-11-07T06:43:36.725Z,100695.28
2022-11-07T06:46:11.789Z,100695.72
2022-11-07T06:48:38.274Z,100709.06
2022-11-07T06:51:06.993Z,100711.94
2022-11-07T06:53:33.698Z,100709.69
2022-11-07T06:56:01.847Z,100719.38
2022-11-07T06:58:28.366Z,100715.09
2022-11-07T07:01:03.093Z,100712.53
2022-11-07T07:03:29.719Z,100720.44
2022-11-07T07:06:04.457Z,100719.47
2022-11-07T07:08:31.575Z,100720.44
2022-11-07T07:11:03.153Z,100728.28
2022-11-07T07:13:29.543Z,100732.41
2022-11-07T07:15:57.583Z,100742.84
2022-11-07T07:18:25.016Z,100736.91
2022-11-07T07:20:54.938Z,100741.03
2022-11-07T07:23:21.588Z,100739.63
2022-11-07T07:25:48.728Z,100736.66
2022-11-07T07:28:14.946Z,100735.41
2022-11-07T07:30:41.415Z,100734.31
2022-11-07T07:33:07.562Z,100737.47
2022-11-07T07:35:34.430Z,100738.34
2022-11-07T07:38:00.910Z,100733.19
2022-11-07T07:40:27.797Z,100738.44
2022-11-07T07:42:54.357Z,100737.97
2022-11-07T07:45:21.022Z,100742.50
2022-11-07T07:47:47.692Z,100729.09
2022-11-07T07:50:14.711Z,100738.06
2022-11-07T07:52:41.155Z,100742.31
2022-11-07T07:55:09.681Z,100741.66
2022-11-07T07:57:43.023Z,100728.53
2022-11-07T08:00:11.450Z,100729.19
2022-11-07T08:02:43.953Z,100736.16
2022-11-07T08:05:12.661Z,100743.69
2022-11-07T08:07:46.239Z,100732.91
2022-11-07T08:10:39.417Z,100736.00
2022-11-07T08:13:00.523Z,100739.75
2022-11-07T08:15:27.241Z,100732.69
2022-11-07T08:17:53.429Z,100745.06
2022-11-07T08:20:20.229Z,100732.31
2022-11-07T08:22:46.713Z,100739.72
2022-11-07T08:25:15.562Z,100745.69
2022-11-07T08:27:42.392Z,100744.22
2022-11-07T08:30:15.131Z,100745.53
2022-11-07T08:32:44.502Z,100741.28
2022-11-07T08:35:11.058Z,100740.66
2022-11-07T08:37:37.528Z,100750.34
2022-11-07T08:40:04.667Z,100751.44
2022-11-07T08:42:31.423Z,100750.75
2022-11-07T08:44:58.016Z,100762.00
2022-11-07T08:47:24.790Z,100762.59
2022-11-07T08:49:52.465Z,100761.88
2022-11-07T08:52:19.889Z,100774.22
2022-11-07T08:54:46.589Z,100769.22
2022-11-07T08:57:12.941Z,100765.31
2022-11-07T08:59:39.404Z,100764.25
2022-11-07T09:04:52.847Z,100782.91
2022-11-07T09:07:19.724Z,100780.16
2022-11-07T09:09:48.612Z,100779.47
2022-11-07T09:12:15.138Z,100775.19
2022-11-07T09:14:41.811Z,100777.78
2022-11-07T09:17:09.025Z,100776.72
2022-11-07T09:19:35.816Z,100779.63
2022-11-07T09:22:02.358Z,100785.75
2022-11-07T09:24:29.765Z,100788.88
2022-11-07T09:26:56.341Z,100798.41
2022-11-07T09:29:23.173Z,100800.19
2022-11-07T09:31:50.382Z,100799.56
2022-11-07T09:34:17.174Z,100813.28
2022-11-07T09:36:43.354Z,100810.16
2022-11-07T09:39:10.071Z,100808.47
2022-11-07T09:41:42.636Z,100812.19
2022-11-07T09:44:17.323Z,100820.22
2022-11-07T09:47:01.293Z,100805.34
2022-11-07T09:49:38.439Z,100822.78
2022-11-07T09:52:20.371Z,100818.41
2022-11-07T09:54:56.057Z,100817.25
2022-11-07T09:57:23.204Z,100813.81
2022-11-07T09:59:55.020Z,100826.06
2022-11-07T10:02:25.511Z,100828.19
2022-11-07T10:04:57.464Z,100831.03
2022-11-07T10:07:38.585Z,100835.81
2022-11-07T10:10:47.206Z,100831.66
2022-11-07T10:13:43.079Z,100826.78
2022-11-07T10:16:20.156Z,100830.47
2022-11-07T10:19:25.877Z,100833.97
2022-11-07T10:22:01.751Z,100847.44
2022-11-07T10:25:05.323Z,100828.03
2022-11-07T10:27:33.268Z,100829.25
2022-11-07T10:30:00.758Z,100827.00
2022-11-07T10:32:53.251Z,100836.59
2022-11-07T10:35:33.743Z,100837.91
2022-11-07T10:38:14.097Z,100832.69
2022-11-07T10:40:41.764Z,100823.53
2022-11-07T10:43:19.247Z,100830.53
2022-11-07T10:45:46.999Z,100834.63
2022-11-07T10:48:14.580Z,100828.03
2022-11-07T10:50:54.127Z,100824.69
2022-11-07T10:53:23.417Z,100825.59
2022-11-07T10:55:51.284Z,100815.47
2022-11-07T10:58:22.848Z,100829.75
2022-11-07T11:01:08.032Z,100822.19
2022-11-07T11:03:45.115Z,100828.81
2022-11-07T11:06:17.915Z,100830.03
2022-11-07T11:08:46.710Z,100828.66
2022-11-07T11:11:33.892Z,100826.97
2022-11-07T11:14:12.599Z,100825.84
2022-11-07T11:16:41.463Z,100820.78
2022-11-07T11:19:22.715Z,100816.72
2022-11-07T11:21:51.531Z,100815.59
2022-11-07T11:24:32.473Z,100811.91
2022-11-07T11:27:04.095Z,100813.28
2022-11-07T11:30:06.533Z,100810.72
2022-11-07T11:32:47.796Z,100814.66
2022-11-07T11:35:24.340Z,100812.97
2022-11-07T11:37:58.311Z,100811.44
2022-11-07T11:40:24.971Z,100808.19
2022-11-07T11:43:04.825Z,100818.91
2022-11-07T11:45:43.941Z,100809.06
2022-11-07T11:48:16.213Z,100806.69
2022-11-07T11:50:47.619Z,100806.34
2022-11-07T11:53:17.799Z,100797.16
2022-11-07T11:55:56.717Z,100802.75
2022-11-07T11:58:31.300Z,100809.41
2022-11-07T12:01:07.333Z,100802.25
2022-11-07T12:04:08.097Z,100803.44
2022-11-07T12:06:39.378Z,100810.91
2022-11-07T12:09:52.104Z,100803.25
2022-11-07T12:12:28.255Z,100797.47
2022-11-07T12:15:13.271Z,100798.50
2022-11-07T12:17:52.747Z,100801.22
2022-11-07T12:20:33.308Z,100795.59
2022-11-07T12:23:16.944Z,100806.84
2022-11-07T12:26:10.221Z,100809.38
2022-11-07T12:29:02.013Z,100804.28
2022-11-07T12:31:46.879Z,100798.84
2022-11-07T12:34:31.901Z,100799.88
2022-11-07T12:37:40.094Z,100808.88
2022-11-07T12:40:34.359Z,100811.44
2022-11-07T12:43:38.189Z,100804.13
2022-11-07T12:46:14.191Z,100804.94
2022-11-07T12:49:02.497Z,100806.66
2022-11-07T12:51:38.385Z,100808.31
2022-11-07T12:54:16.857Z,100800.53
2022-11-07T12:56:46.645Z,100809.84
2022-11-07T12:59:26.419Z,100794.91
2022-11-07T13:02:06.005Z,100797.44
2022-11-07T13:04:38.199Z,100804.63
2022-11-07T13:07:34.379Z,100796.59
2022-11-07T13:10:16.617Z,100806.50
2022-11-07T13:13:05.138Z,100801.06
2022-11-07T13:15:47.470Z,100804.47
2022-11-07T13:18:28.023Z,100809.06
2022-11-07T13:21:02.850Z,100817.06
2022-11-07T13:23:29.875Z,100820.63
2022-11-07T13:26:25.927Z,100826.75
2022-11-07T13:28:58.052Z,100819.28
2022-11-07T13:31:45.421Z,100809.06
2022-11-07T13:34:18.353Z,100821.16
2022-11-07T13:36:50.163Z,100810.75
2022-11-07T13:39:17.996Z,100812.97
2022-11-07T13:41:47.576Z,100817.41
2022-11-07T13:44:26.428Z,100814.34
2022-11-07T13:46:55.907Z,100814.00
2022-11-07T13:49:43.979Z,100815.19
2022-11-07T13:52:29.018Z,100821.16
2022-11-07T13:55:23.921Z,100814.84
2022-11-07T13:57:55.786Z,100818.25
2022-11-07T14:00:22.953Z,100815.34
2022-11-07T14:02:58.178Z,100816.72
2022-11-07T14:05:27.325Z,100817.22
2022-11-07T14:08:00.077Z,100818.59
2022-11-07T14:10:42.036Z,100818.94
2022-11-07T14:13:11.511Z,100821.84
2022-11-07T14:15:47.934Z,100822.34
2022-11-07T14:18:18.965Z,100824.53
2022-11-07T14:20:57.444Z,100825.75
2022-11-07T14:23:26.755Z,100831.19
2022-11-07T14:25:56.522Z,100827.44
2022-11-07T14:28:23.048Z,100832.19
2022-11-07T14:30:51.644Z,100831.50
2022-11-07T14:33:21.227Z,100825.38
2022-11-07T14:35:50.511Z,100825.03
2022-11-07T14:38:27.301Z,100821.13
2022-11-07T14:40:58.411Z,100822.31
2022-11-07T14:43:26.410Z,100811.09
2022-11-07T14:46:18.043Z,100816.84
2022-11-07T14:48:46.866Z,100810.19
2022-11-07T14:51:17.198Z,100815.13
2022-11-07T14:53:49.839Z,100814.06
2022-11-07T14:56:22.292Z,100816.63
2022-11-07T14:58:48.817Z,100814.41
2022-11-07T15:01:26.340Z,100815.03
2022-11-07T15:03:59.769Z,100807.84
2022-11-07T15:06:40.300Z,100807.81
2022-11-07T15:09:08.598Z,100812.22
2022-11-07T15:11:37.743Z,100803.69
2022-11-07T15:14:20.083Z,100813.50
2022-11-07T15:16:48.850Z,100807.13
2022-11-07T15:19:19.235Z,100812.56
2022-11-07T15:21:51.787Z,100813.38
2022-11-07T15:24:43.831Z,100814.84
2022-11-07T15:27:13.294Z,100818.03
2022-11-07T15:29:49.673Z,100809.16
2022-11-07T15:32:20.468Z,100806.75
2022-11-07T15:35:37.781Z,100807.75
2022-11-07T15:38:01.255Z,100799.59
2022-11-07T15:40:29.430Z,100799.22
2022-11-07T15:42:56.172Z,100808.53
2022-11-07T15:45:23.168Z,100809.88
2022-11-07T15:47:50.339Z,100811.34
2022-11-07T15:50:19.533Z,100813.38
2022-11-07T15:52:49.921Z,100799.19
2022-11-07T15:55:18.404Z,100805.47
2022-11-07T15:57:47.284Z,100804.69
2022-11-07T16:00:19.108Z,100815.72
2022-11-07T16:02:46.061Z,100815.56
2022-11-07T16:05:13.656Z,100818.09
2022-11-07T16:07:44.720Z,100814.69
2022-11-07T16:10:21.825Z,100820.28
2022-11-07T16:12:49.250Z,100819.75
2022-11-07T16:15:17.557Z,100824.78
2022-11-07T16:17:44.282Z,100824.03
2022-11-07T16:20:15.580Z,100820.28
2022-11-07T16:22:43.656Z,100823.75
2022-11-07T16:25:22.042Z,100822.19
2022-11-07T16:27:54.374Z,100818.00
2022-11-07T16:30:21.490Z,100820.88
2022-11-07T16:32:48.169Z,100826.00
2022-11-07T16:35:14.669Z,100813.91
2022-11-07T16:37:41.258Z,100820.81
2022-11-07T16:40:12.892Z,100819.25
2022-11-07T16:42:39.318Z,100817.00
2022-11-07T16:45:06.252Z,100819.09
2022-11-07T16:47:36.578Z,100819.72
2022-11-07T16:50:03.771Z,100827.47
2022-11-07T16:52:30.306Z,100830.34
2022-11-07T16:54:56.793Z,100825.38
2022-11-07T16:57:25.735Z,100812.50
2022-11-07T16:59:52.032Z,100821.28
2022-11-07T17:02:24.319Z,100819.09
2022-11-07T17:04:52.777Z,100826.38
2022-11-07T17:07:22.050Z,100831.78
2022-11-07T17:09:48.999Z,100827.47
2022-11-07T17:12:24.326Z,100824.06
2022-11-07T17:14:50.704Z,100835.06
2022-11-07T17:17:18.404Z,100838.78
2022-11-07T17:19:45.127Z,100833.88
2022-11-07T17:22:12.725Z,100839.13
2022-11-07T17:24:39.696Z,100843.63
2022-11-07T17:27:22.462Z,100840.84
2022-11-07T17:29:50.009Z,100839.59
2022-11-07T17:32:16.689Z,100834.41
2022-11-07T17:34:43.020Z,100837.97
2022-11-07T17:37:14.712Z,100833.00
2022-11-07T17:39:45.361Z,100830.28
2022-11-07T17:42:12.664Z,100837.19
2022-11-07T17:44:39.554Z,100824.94
2022-11-07T17:47:20.150Z,100846.56
2022-11-07T17:49:46.364Z,100837.03
2022-11-07T17:52:12.775Z,100837.19
2022-11-07T17:54:38.916Z,100849.75
2022-11-07T17:57:08.245Z,100844.63
2022-11-07T17:59:34.394Z,100837.41
2022-11-07T18:02:01.100Z,100846.78
2022-11-07T18:04:27.414Z,100846.25
2022-11-07T18:06:53.948Z,100846.47
2022-11-07T18:09:20.172Z,100849.88
2022-11-07T18:11:46.743Z,100845.31
2022-11-07T18:14:13.523Z,100845.69
2022-11-07T18:16:40.424Z,100852.66
2022-11-07T18:19:06.714Z,100851.50
2022-11-07T18:21:33.414Z,100848.31
2022-11-07T18:23:59.858Z,100857.13
2022-11-07T18:26:32.725Z,100847.28
2022-11-07T18:29:05.278Z,100846.47
2022-11-07T18:31:32.117Z,100845.59
2022-11-07T18:34:00.831Z,100849.53
2022-11-07T18:36:30.006Z,100848.00
2022-11-07T18:39:01.156Z,100848.00
2022-11-07T18:41:27.884Z,100843.94
2022-11-07T18:43:54.381Z,100842.09
2022-11-07T18:46:21.670Z,100843.94
2022-11-07T18:48:48.436Z,100841.94
2022-11-07T18:51:21.196Z,100840.91
2022-11-07T18:53:48.547Z,100849.75
2022-11-07T18:56:15.887Z,100857.59
2022-11-07T18:58:42.755Z,100852.47
2022-11-07T19:01:22.911Z,100848.59
2022-11-07T19:03:51.863Z,100848.91
2022-11-07T19:06:20.849Z,100854.50
2022-11-07T19:08:47.708Z,100858.41
2022-11-07T19:11:20.251Z,100857.53
2022-11-07T19:13:47.029Z,100860.63
2022-11-07T19:16:16.450Z,100859.09
2022-11-07T19:18:49.119Z,100857.53
2022-11-07T19:21:19.612Z,100857.53
2022-11-07T19:23:47.321Z,100856.16
2022-11-07T19:26:14.193Z,100861.16
2022-11-07T19:28:40.436Z,100857.75
2022-11-07T19:31:12.076Z,100858.28
2022-11-07T19:33:42.526Z,100846.84
2022-11-07T19:36:15.856Z,100851.78
2022-11-07T19:38:42.710Z,100860.47
2022-11-07T19:41:10.547Z,100857.22
2022-11-07T19:43:38.197Z,100864.19
2022-11-07T19:46:07.986Z,100869.78
2022-11-07T19:48:34.482Z,100875.22
2022-11-07T19:51:06.034Z,100869.09
2022-11-07T19:53:32.363Z,100879.75
2022-11-07T19:56:06.353Z,100873.16
2022-11-07T19:58:35.446Z,100866.50
2022-11-07T20:01:09.286Z,100870.97
2022-11-07T20:03:35.616Z,100870.44
2022-11-07T20:06:02.078Z,100868.09
2022-11-07T20:08:28.357Z,100880.13
2022-11-07T20:10:54.797Z,100880.34
2022-11-07T20:13:21.058Z,100885.47
2022-11-07T20:15:47.791Z,100879.72
2022-11-07T20:18:14.026Z,100881.19
2022-11-07T20:20:40.945Z,100878.84
2022-11-07T20:23:07.356Z,100882.44
2022-11-07T20:25:33.813Z,100886.84
2022-11-07T20:28:00.519Z,100884.44
2022-11-07T20:30:27.518Z,100882.44
2022-11-07T20:32:53.945Z,100885.16
2022-11-07T20:35:20.509Z,100890.41
2022-11-07T20:37:46.925Z,100892.13
2022-11-07T20:40:13.940Z,100883.13
2022-11-07T20:42:40.239Z,100882.59
2022-11-07T20:45:07.257Z,100885.84
2022-11-07T20:47:33.903Z,100879.34
2022-11-07T20:50:00.534Z,100889.72
2022-11-07T20:52:26.782Z,100884.78
2022-11-07T20:54:53.246Z,100889.50
2022-11-07T20:57:19.678Z,100890.59
2022-11-07T20:59:46.265Z,100892.44
2022-11-07T21:02:13.335Z,100897.19
2022-11-07T21:04:56.182Z,100893.78
2022-11-07T21:07:26.397Z,100895.47
2022-11-07T21:09:53.924Z,100882.06
2022-11-07T21:12:20.164Z,100892.59
2022-11-07T21:14:46.756Z,100897.03
2022-11-07T21:17:15.430Z,100898.19
2022-11-07T21:19:42.158Z,100894.47
2022-11-07T21:22:08.559Z,100893.78
2022-11-07T21:24:35.368Z,100890.06
2022-11-07T21:27:01.661Z,100888.19
2022-11-07T21:29:29.781Z,100888.19
2022-11-07T21:31:57.089Z,100888.88
2022-11-07T21:34:24.186Z,100889.19
2022-11-07T21:36:50.596Z,100886.16
2022-11-07T21:39:17.303Z,100893.94
2022-11-07T21:41:43.476Z,100894.63
2022-11-07T21:44:11.460Z,100890.22
2022-11-07T21:46:37.659Z,100895.16
2022-11-07T21:49:05.376Z,100889.56
2022-11-07T21:51:33.935Z,100891.97
2022-11-07T21:54:24.072Z,100889.25
2022-11-07T21:56:50.295Z,100897.72
2022-11-07T21:59:18.841Z,100892.59
2022-11-07T22:01:47.804Z,100894.31
2022-11-07T22:04:15.171Z,100895.31
2022-11-07T22:06:44.059Z,100885.41
2022-11-07T22:09:15.585Z,100882.00
2022-11-07T22:11:42.334Z,100895.22
2022-11-07T22:14:14.150Z,100891.28
2022-11-07T22:16:40.662Z,100893.78
2022-11-07T22:19:12.012Z,100885.88
2022-11-07T22:21:39.506Z,100891.63
2022-11-07T22:24:06.281Z,100892.25
2022-11-07T22:26:35.383Z,100893.97
2022-11-07T22:29:02.141Z,100896.91
2022-11-07T22:31:29.996Z,100895.53
2022-11-07T22:33:57.910Z,100897.47
2022-11-07T22:36:24.478Z,100896.38
2022-11-07T22:38:51.049Z,100894.16
2022-11-07T22:41:22.170Z,100896.09
2022-11-07T22:43:49.524Z,100902.50
2022-11-07T22:46:21.491Z,100905.97
2022-11-07T22:48:48.921Z,100904.97
2022-11-07T22:51:21.193Z,100911.56
2022-11-07T22:53:53.959Z,100905.13
2022-11-07T22:56:20.196Z,100902.41
2022-11-07T22:58:46.754Z,100900.16
2022-11-07T23:01:20.189Z,100900.81
2022-11-07T23:03:47.826Z,100903.22
2022-11-07T23:06:15.055Z,100904.06
2022-11-07T23:08:41.607Z,100902.81
2022-11-07T23:14:05.318Z,100913.38
2022-11-07T23:16:34.636Z,100907.38
2022-11-07T23:19:03.563Z,100910.66
2022-11-07T23:21:29.877Z,100913.66
2022-11-07T23:23:57.631Z,100904.44
2022-11-07T23:26:24.973Z,100903.97
2022-11-07T23:28:51.836Z,100917.28
2022-11-07T23:31:19.179Z,100909.84
2022-11-07T23:33:45.592Z,100909.00
2022-11-07T23:36:14.014Z,100919.16
2022-11-07T23:38:41.833Z,100914.19
2022-11-07T23:41:10.852Z,100913.50
2022-11-07T23:43:37.397Z,100911.88
2022-11-07T23:46:23.188Z,100909.31
2022-11-07T23:49:14.184Z,100902.72
2022-11-07T23:51:41.404Z,100920.47
2022-11-07T23:54:27.230Z,100914.19
2022-11-07T23:56:53.586Z,100920.47
2022-11-07T23:59:38.809Z,100920.47
